createdAt,value
2023-04-13T00:01:13.945Z,1.60
2023-04-13T00:03:41.935Z,1.83
2023-04-13T00:06:11.767Z,2.77
2023-04-13T00:08:38.949Z,1.97
2023-04-13T00:11:07.539Z,1.30
2023-04-13T00:13:41.469Z,0.83
2023-04-13T00:16:10.479Z,0.90
2023-04-13T00:18:37.531Z,0.93
2023-04-13T00:21:04.739Z,0.90
2023-04-13T00:23:32.190Z,0.90
2023-04-13T00:26:01.868Z,0.90
2023-04-13T00:28:30.286Z,1.17
2023-04-13T00:30:57.472Z,3.07
2023-04-13T00:33:24.707Z,1.10
2023-04-13T00:35:52.457Z,1.10
2023-04-13T00:38:19.558Z,1.00
2023-04-13T00:40:46.561Z,0.97
2023-04-13T00:43:13.516Z,2.30
2023-04-13T00:45:41.563Z,2.10
2023-04-13T00:48:11.199Z,1.80
2023-04-13T00:50:39.372Z,2.17
2023-04-13T00:53:10.632Z,1.30
2023-04-13T00:55:42.211Z,1.00
2023-04-13T00:58:09.520Z,1.17
2023-04-13T01:00:39.806Z,1.10
2023-04-13T01:03:07.146Z,1.80
2023-04-13T01:05:57.298Z,1.23
2023-04-13T01:08:39.864Z,4.53
2023-04-13T01:11:39.525Z,6.70
2023-04-13T01:14:44.734Z,3.90
2023-04-13T01:17:28.915Z,1.30
2023-04-13T01:20:12.259Z,1.37
2023-04-13T01:22:45.701Z,4.87
2023-04-13T01:25:38.227Z,1.43
2023-04-13T01:28:11.834Z,2.50
2023-04-13T01:30:40.516Z,1.17
2023-04-13T01:33:08.900Z,2.10
2023-04-13T01:35:36.670Z,7.30
2023-04-13T01:38:04.358Z,0.90
2023-04-13T01:40:32.963Z,0.97
2023-04-13T01:43:00.113Z,3.60
2023-04-13T01:45:29.683Z,1.67
2023-04-13T01:48:13.728Z,1.20
2023-04-13T01:50:48.629Z,1.87
2023-04-13T01:53:19.183Z,1.17
2023-04-13T01:55:49.158Z,1.20
2023-04-13T01:58:18.731Z,1.20
2023-04-13T02:00:46.427Z,1.10
2023-04-13T02:03:15.720Z,1.33
2023-04-13T02:05:42.943Z,6.83
2023-04-13T02:08:09.892Z,2.13
2023-04-13T02:10:40.185Z,1.30
2023-04-13T02:13:09.598Z,1.70
2023-04-13T02:15:37.800Z,3.60
2023-04-13T02:18:05.888Z,1.27
2023-04-13T02:20:43.562Z,1.30
2023-04-13T02:23:18.003Z,2.60
2023-04-13T02:25:47.904Z,4.30
2023-04-13T02:28:16.093Z,1.57
2023-04-13T02:30:43.128Z,1.47
2023-04-13T02:33:10.052Z,1.37
2023-04-13T02:35:39.083Z,1.10
2023-04-13T02:38:10.805Z,3.60
2023-04-13T02:40:38.940Z,2.30
2023-04-13T02:43:05.951Z,1.20
2023-04-13T02:45:33.201Z,2.97
2023-04-13T02:48:00.291Z,1.13
2023-04-13T02:50:28.289Z,1.20
2023-04-13T02:52:55.296Z,1.67
2023-04-13T02:55:22.414Z,2.27
2023-04-13T02:57:49.976Z,1.37
2023-04-13T03:00:17.256Z,1.30
2023-04-13T03:02:44.886Z,3.33
2023-04-13T03:05:13.077Z,3.00
2023-04-13T03:07:40.367Z,1.07
2023-04-13T03:10:09.112Z,1.07
2023-04-13T03:12:36.961Z,3.77
2023-04-13T03:15:07.452Z,3.03
2023-04-13T03:17:34.845Z,1.53
2023-04-13T03:20:02.225Z,3.53
2023-04-13T03:22:30.736Z,1.73
2023-04-13T03:24:57.767Z,1.33
2023-04-13T03:27:24.764Z,2.10
2023-04-13T03:29:51.749Z,1.93
2023-04-13T03:32:19.314Z,2.20
2023-04-13T03:34:46.490Z,1.60
2023-04-13T03:37:13.429Z,4.90
2023-04-13T03:39:40.882Z,1.73
2023-04-13T03:42:07.967Z,2.77
2023-04-13T03:44:35.054Z,1.20
2023-04-13T03:47:02.128Z,1.20
2023-04-13T03:49:30.639Z,1.90
2023-04-13T03:51:59.000Z,1.67
2023-04-13T03:54:26.374Z,2.40
2023-04-13T03:56:53.714Z,7.30
2023-04-13T03:59:20.811Z,1.80
2023-04-13T04:01:47.825Z,6.63
2023-04-13T04:04:15.070Z,3.80
2023-04-13T04:06:42.086Z,2.40
2023-04-13T04:09:10.254Z,2.43
2023-04-13T04:11:37.255Z,8.23
2023-04-13T04:14:04.367Z,2.50
2023-04-13T04:16:31.541Z,8.77
2023-04-13T04:18:58.623Z,7.20
2023-04-13T04:21:33.932Z,2.63
2023-04-13T04:24:01.991Z,20.37
2023-04-13T04:26:30.191Z,2.27
2023-04-13T04:29:02.396Z,5.83
2023-04-13T04:31:37.415Z,2.13
2023-04-13T04:34:04.940Z,2.80
2023-04-13T04:36:31.930Z,2.20
2023-04-13T04:39:02.799Z,3.17
2023-04-13T04:41:31.361Z,6.27
2023-04-13T04:44:02.989Z,2.20
2023-04-13T04:46:30.044Z,1.27
2023-04-13T04:49:00.924Z,1.30
2023-04-13T04:51:29.063Z,1.67
2023-04-13T04:53:58.734Z,1.93
2023-04-13T04:56:26.101Z,2.90
2023-04-13T04:58:53.068Z,4.00
2023-04-13T05:01:23.042Z,3.13
2023-04-13T05:03:50.136Z,2.67
2023-04-13T05:06:17.158Z,2.23
2023-04-13T05:08:44.947Z,4.63
2023-04-13T05:11:12.064Z,1.27
2023-04-13T05:13:39.015Z,1.90
2023-04-13T05:16:06.380Z,4.47
2023-04-13T05:18:44.226Z,2.47
2023-04-13T05:21:11.495Z,3.77
2023-04-13T05:23:38.709Z,3.13
2023-04-13T05:26:06.244Z,2.40
2023-04-13T05:28:34.411Z,1.00
2023-04-13T05:31:04.944Z,3.43
2023-04-13T05:33:31.923Z,1.47
2023-04-13T05:35:59.121Z,2.13
2023-04-13T05:38:26.357Z,4.67
2023-04-13T05:40:54.240Z,2.90
2023-04-13T05:43:23.652Z,1.57
2023-04-13T05:45:51.011Z,7.90
2023-04-13T05:48:18.101Z,2.80
2023-04-13T05:50:45.122Z,2.13
2023-04-13T05:53:12.834Z,12.50
2023-04-13T05:55:42.582Z,1.87
2023-04-13T05:58:11.167Z,2.30
2023-04-13T06:00:38.958Z,3.10
2023-04-13T06:03:07.601Z,6.27
2023-04-13T06:05:36.755Z,1.47
2023-04-13T06:08:04.118Z,3.57
2023-04-13T06:10:31.564Z,4.03
2023-04-13T06:12:58.993Z,2.93
2023-04-13T06:15:26.249Z,3.10
2023-04-13T06:17:53.562Z,7.20
2023-04-13T06:20:21.818Z,4.50
2023-04-13T06:22:49.322Z,8.17
2023-04-13T06:25:16.877Z,7.77
2023-04-13T06:27:44.398Z,3.20
2023-04-13T06:30:12.346Z,5.53
2023-04-13T06:32:39.604Z,4.93
2023-04-13T06:35:07.253Z,2.03
2023-04-13T06:37:38.248Z,4.33
2023-04-13T06:40:16.507Z,1.73
2023-04-13T06:42:43.886Z,5.47
2023-04-13T06:45:11.956Z,18.70
2023-04-13T06:47:43.054Z,3.17
2023-04-13T06:50:14.113Z,2.30
2023-04-13T06:52:44.217Z,2.90
2023-04-13T06:55:11.689Z,2.83
2023-04-13T06:57:38.751Z,1.67
2023-04-13T07:00:15.452Z,2.30
2023-04-13T07:02:53.605Z,1.25
2023-04-13T07:05:20.968Z,5.17
2023-04-13T07:07:47.981Z,1.33
2023-04-13T07:10:15.028Z,2.33
2023-04-13T07:12:42.493Z,5.03
2023-04-13T07:15:09.777Z,1.93
2023-04-13T07:17:37.118Z,8.43
2023-04-13T07:20:05.827Z,4.27
2023-04-13T07:22:33.814Z,2.43
2023-04-13T07:28:36.666Z,3.67
2023-04-13T07:31:05.004Z,4.57
2023-04-13T07:33:32.400Z,6.00
2023-04-13T07:35:59.312Z,8.03
2023-04-13T07:38:26.353Z,2.00
2023-04-13T07:40:53.338Z,6.90
2023-04-13T07:43:20.780Z,3.87
2023-04-13T07:45:47.776Z,4.20
2023-04-13T07:48:14.701Z,4.70
2023-04-13T07:50:43.062Z,4.10
2023-04-13T07:53:10.117Z,3.83
2023-04-13T07:55:37.949Z,5.93
2023-04-13T07:58:04.898Z,10.83
2023-04-13T08:00:31.885Z,7.87
2023-04-13T08:02:59.028Z,5.07
2023-04-13T08:05:26.267Z,6.63
2023-04-13T08:07:53.410Z,5.53
2023-04-13T08:10:20.910Z,9.30
2023-04-13T08:12:47.911Z,6.63
2023-04-13T08:15:14.857Z,6.60
2023-04-13T08:17:42.344Z,3.73
2023-04-13T08:20:09.697Z,5.37
2023-04-13T08:22:36.946Z,4.77
2023-04-13T08:25:05.526Z,13.20
2023-04-13T08:27:32.643Z,2.07
2023-04-13T08:30:02.125Z,10.60
2023-04-13T08:32:29.638Z,10.00
2023-04-13T08:34:56.627Z,4.50
2023-04-13T08:37:24.729Z,8.13
2023-04-13T08:39:56.645Z,12.97
2023-04-13T08:42:26.942Z,15.27
2023-04-13T08:45:01.599Z,27.47
2023-04-13T08:47:29.144Z,30.33
2023-04-13T08:50:01.182Z,15.23
2023-04-13T08:52:28.944Z,5.95
2023-04-13T08:55:01.152Z,8.50
2023-04-13T08:57:29.907Z,20.00
2023-04-13T08:59:58.360Z,11.83
2023-04-13T09:02:32.118Z,9.10
2023-04-13T09:05:05.336Z,12.38
2023-04-13T09:07:34.833Z,14.52
2023-04-13T09:10:02.722Z,7.95
2023-04-13T09:12:33.854Z,4.53
2023-04-13T09:15:03.200Z,7.20
2023-04-13T09:17:32.440Z,5.50
2023-04-13T09:20:15.016Z,5.03
2023-04-13T09:22:42.856Z,13.63
2023-04-13T09:25:23.142Z,7.97
2023-04-13T09:27:53.308Z,10.02
2023-04-13T09:30:27.560Z,7.47
2023-04-13T09:33:08.752Z,6.90
2023-04-13T09:35:36.293Z,17.13
2023-04-13T09:38:07.467Z,8.10
2023-04-13T09:40:38.409Z,7.57
2023-04-13T09:43:08.096Z,9.68
2023-04-13T09:45:36.777Z,11.10
2023-04-13T09:48:05.270Z,14.13
2023-04-13T09:50:34.066Z,11.57
2023-04-13T09:53:10.821Z,4.60
2023-04-13T09:55:39.278Z,6.17
2023-04-13T09:58:13.978Z,7.40
2023-04-13T10:00:46.645Z,4.55
2023-04-13T10:03:15.591Z,5.68
2023-04-13T10:05:55.336Z,6.00
2023-04-13T10:08:37.580Z,8.40
2023-04-13T10:11:12.264Z,5.47
2023-04-13T10:13:56.043Z,5.10
2023-04-13T10:16:36.799Z,3.13
2023-04-13T10:19:24.093Z,3.55
2023-04-13T10:21:53.702Z,11.95
2023-04-13T10:24:24.359Z,4.05
2023-04-13T10:26:55.626Z,4.47
2023-04-13T10:29:30.115Z,6.18
2023-04-13T10:32:03.636Z,3.95
2023-04-13T10:34:34.540Z,3.05
2023-04-13T10:37:06.746Z,4.50
2023-04-13T10:39:36.307Z,4.88
2023-04-13T10:42:10.900Z,13.27
2023-04-13T10:44:46.261Z,4.57
2023-04-13T10:47:15.410Z,10.18
2023-04-13T10:49:44.644Z,13.45
2023-04-13T10:52:12.582Z,7.07
2023-04-13T10:54:41.524Z,4.45
2023-04-13T10:57:11.637Z,10.32
2023-04-13T10:59:59.345Z,11.68
2023-04-13T11:02:32.447Z,12.13
2023-04-13T11:05:01.462Z,95.10
2023-04-13T11:07:29.888Z,5.82
2023-04-13T11:10:03.966Z,3.50
2023-04-13T11:12:33.347Z,6.03
2023-04-13T11:15:01.091Z,7.43
2023-04-13T11:17:28.544Z,7.82
2023-04-13T11:19:57.266Z,4.78
2023-04-13T11:22:28.175Z,7.35
2023-04-13T11:25:09.522Z,8.82
2023-04-13T11:27:38.057Z,4.22
2023-04-13T11:30:07.795Z,6.57
2023-04-13T11:32:36.583Z,7.35
2023-04-13T11:35:11.336Z,5.90
2023-04-13T11:37:50.100Z,6.00
2023-04-13T11:40:21.622Z,8.90
2023-04-13T11:42:54.052Z,8.38
2023-04-13T11:45:25.713Z,4.38
2023-04-13T11:47:54.195Z,4.18
2023-04-13T11:50:22.756Z,9.25
2023-04-13T11:52:56.660Z,6.28
2023-04-13T11:55:25.299Z,7.50
2023-04-13T11:57:54.013Z,9.25
2023-04-13T12:00:26.735Z,2.08
2023-04-13T12:05:28.611Z,4.80
2023-04-13T12:07:57.534Z,6.88
2023-04-13T12:10:36.153Z,3.92
2023-04-13T12:16:04.981Z,4.47
2023-04-13T12:18:47.431Z,5.18
2023-04-13T12:21:17.455Z,4.88
2023-04-13T12:23:58.844Z,5.05
2023-04-13T12:29:08.966Z,3.08
2023-04-13T12:31:38.404Z,3.33
2023-04-13T12:34:08.119Z,6.35
2023-04-13T12:36:36.683Z,3.50
2023-04-13T12:39:05.067Z,5.43
2023-04-13T12:41:33.006Z,2.70
2023-04-13T12:44:00.160Z,4.70
2023-04-13T12:46:27.227Z,7.13
2023-04-13T12:48:55.237Z,4.72
2023-04-13T12:51:22.577Z,10.30
2023-04-13T12:53:49.883Z,49.03
2023-04-13T12:56:17.132Z,21.67
2023-04-13T12:58:44.423Z,16.73
2023-04-13T13:01:11.797Z,6.03
2023-04-13T13:03:38.956Z,4.05
2023-04-13T13:06:07.388Z,4.60
2023-04-13T13:08:36.931Z,2.35
2023-04-13T13:11:08.480Z,7.18
2023-04-13T13:13:35.940Z,5.50
2023-04-13T13:16:03.849Z,4.43
2023-04-13T13:18:46.392Z,3.45
2023-04-13T13:21:17.771Z,2.63
2023-04-13T13:23:46.051Z,1.67
2023-04-13T13:26:23.975Z,1.08
2023-04-13T13:28:52.516Z,0.98
2023-04-13T13:31:20.024Z,0.63
2023-04-13T13:33:47.557Z,1.05
2023-04-13T13:36:15.673Z,2.05
2023-04-13T13:38:43.712Z,2.53
2023-04-13T13:41:11.683Z,1.83
2023-04-13T13:43:39.535Z,0.65
2023-04-13T13:46:07.250Z,1.02
2023-04-13T13:48:34.712Z,2.63
2023-04-13T13:51:03.336Z,3.80
2023-04-13T13:53:31.980Z,31.25
2023-04-13T13:55:59.338Z,100.88
2023-04-13T13:58:26.674Z,175.00
2023-04-13T14:00:56.132Z,113.28
2023-04-13T14:03:24.036Z,62.22
2023-04-13T14:05:51.330Z,79.13
2023-04-13T14:08:18.621Z,1.73
2023-04-13T14:10:49.667Z,5.40
2023-04-13T14:13:17.439Z,1.77
2023-04-13T14:15:44.741Z,1.85
2023-04-13T14:18:12.340Z,1.02
2023-04-13T14:20:40.399Z,1.52
2023-04-13T14:23:09.669Z,1.45
2023-04-13T14:25:38.222Z,93.65
2023-04-13T14:28:06.486Z,5.68
2023-04-13T14:30:33.957Z,7.35
2023-04-13T14:33:01.586Z,2.88
2023-04-13T14:35:29.610Z,2.28
2023-04-13T14:37:57.352Z,5.45
2023-04-13T14:40:24.661Z,3.90
2023-04-13T14:42:55.237Z,10.02
2023-04-13T14:45:22.331Z,5.03
2023-04-13T14:47:50.237Z,4.05
2023-04-13T14:50:18.302Z,3.97
2023-04-13T14:52:46.506Z,3.78
2023-04-13T14:55:14.762Z,3.15
2023-04-13T14:57:42.216Z,1.88
2023-04-13T15:00:32.425Z,3.90
2023-04-13T15:02:59.971Z,3.10
2023-04-13T15:05:28.304Z,157.57
2023-04-13T15:07:55.814Z,15.73
2023-04-13T15:10:22.836Z,24.83
2023-04-13T15:12:49.773Z,6.65
2023-04-13T15:15:16.914Z,3.72
2023-04-13T15:17:44.151Z,58.10
2023-04-13T15:20:12.196Z,4.72
2023-04-13T15:22:39.178Z,6.00
2023-04-13T15:25:06.838Z,93.43
2023-04-13T15:27:34.777Z,3.08
2023-04-13T15:30:03.756Z,4.47
2023-04-13T15:32:34.073Z,47.85
2023-04-13T15:35:01.183Z,36.67
2023-04-13T15:37:28.643Z,113.30
2023-04-13T15:39:58.302Z,7.53
2023-04-13T15:42:27.569Z,14.32
2023-04-13T15:44:55.453Z,12.70
2023-04-13T15:47:22.995Z,5.35
2023-04-13T15:49:50.020Z,5.60
2023-04-13T15:52:16.947Z,49.55
2023-04-13T15:54:44.026Z,51.28
2023-04-13T15:57:11.076Z,40.20
2023-04-13T15:59:38.106Z,46.22
2023-04-13T16:02:05.163Z,148.40
2023-04-13T16:04:32.835Z,50.65
2023-04-13T16:07:12.856Z,17.88
2023-04-13T16:09:56.777Z,146.80
2023-04-13T16:12:31.525Z,10.52
2023-04-13T16:15:01.648Z,3.58
2023-04-13T16:17:33.395Z,7.20
2023-04-13T16:20:14.541Z,5.03
2023-04-13T16:22:43.244Z,19.05
2023-04-13T16:25:11.538Z,1.98
2023-04-13T16:27:38.825Z,3.42
2023-04-13T16:30:08.297Z,7.07
2023-04-13T16:32:35.374Z,11.93
2023-04-13T16:35:02.530Z,117.53
2023-04-13T16:37:29.553Z,137.82
2023-04-13T16:39:56.527Z,194.65
2023-04-13T16:42:23.463Z,307.27
2023-04-13T16:44:50.489Z,196.77
2023-04-13T16:47:18.116Z,75.45
2023-04-13T16:49:45.127Z,9.68
2023-04-13T16:52:12.666Z,40.13
2023-04-13T16:54:43.636Z,5.70
2023-04-13T16:57:11.766Z,13.75
2023-04-13T16:59:39.218Z,9.80
2023-04-13T17:02:11.303Z,53.85
2023-04-13T17:04:42.491Z,47.90
2023-04-13T17:07:09.494Z,37.75
2023-04-13T17:09:36.738Z,23.83
2023-04-13T17:12:03.786Z,16.27
2023-04-13T17:14:31.598Z,11.75
2023-04-13T17:16:58.637Z,7.40
2023-04-13T17:19:25.881Z,4.97
2023-04-13T17:21:52.828Z,15.77
2023-04-13T17:24:19.772Z,13.82
2023-04-13T17:26:46.828Z,5.13
2023-04-13T17:29:13.830Z,16.05
2023-04-13T17:31:40.843Z,5.70
2023-04-13T17:34:07.905Z,5.20
2023-04-13T17:36:34.952Z,6.07
2023-04-13T17:39:02.088Z,2.25
2023-04-13T17:41:29.274Z,3.47
2023-04-13T17:43:56.237Z,4.93
2023-04-13T17:46:23.221Z,4.20
2023-04-13T17:48:50.287Z,2.55
2023-04-13T17:51:17.240Z,2.10
2023-04-13T17:53:44.198Z,7.25
2023-04-13T17:56:17.927Z,4.68
2023-04-13T17:58:45.187Z,4.15
2023-04-13T18:01:12.369Z,8.13
2023-04-13T18:03:42.288Z,6.10
2023-04-13T18:06:39.468Z,3.13
2023-04-13T18:09:06.788Z,3.87
2023-04-13T18:11:33.869Z,1.80
2023-04-13T18:14:02.828Z,3.80
2023-04-13T18:16:31.886Z,1.92
2023-04-13T18:19:04.179Z,6.22
2023-04-13T18:21:32.384Z,2.30
2023-04-13T18:24:01.778Z,8.73
2023-04-13T18:26:29.333Z,5.00
2023-04-13T18:28:56.288Z,4.07
2023-04-13T18:31:23.448Z,2.37
2023-04-13T18:33:50.618Z,7.40
2023-04-13T18:36:18.511Z,2.70
2023-04-13T18:38:46.313Z,2.27
2023-04-13T18:41:13.765Z,2.08
2023-04-13T18:43:40.948Z,1.67
2023-04-13T18:46:08.332Z,4.55
2023-04-13T18:48:36.085Z,2.27
2023-04-13T18:51:05.233Z,3.10
2023-04-13T18:53:32.237Z,3.30
2023-04-13T18:56:03.454Z,4.53
2023-04-13T18:58:30.417Z,2.03
2023-04-13T19:00:57.369Z,3.07
2023-04-13T19:03:24.574Z,1.47
2023-04-13T19:05:52.078Z,4.10
2023-04-13T19:08:19.072Z,3.27
2023-04-13T19:10:46.273Z,4.57
2023-04-13T19:13:15.173Z,3.80
2023-04-13T19:15:48.200Z,2.60
2023-04-13T19:18:15.104Z,3.73
2023-04-13T19:20:42.101Z,5.47
2023-04-13T19:23:09.126Z,3.33
2023-04-13T19:25:36.445Z,4.37
2023-04-13T19:28:05.026Z,6.83
2023-04-13T19:30:32.308Z,3.23
2023-04-13T19:33:00.792Z,3.27
2023-04-13T19:35:29.441Z,2.80
2023-04-13T19:37:56.394Z,6.23
2023-04-13T19:40:24.229Z,3.80
2023-04-13T19:42:51.190Z,2.53
2023-04-13T19:45:18.206Z,4.67
2023-04-13T19:47:45.833Z,4.03
2023-04-13T19:50:14.991Z,4.90
2023-04-13T19:52:42.668Z,2.93
2023-04-13T19:55:11.105Z,4.70
2023-04-13T19:57:42.188Z,5.57
2023-04-13T20:00:19.285Z,4.63
2023-04-13T20:02:49.971Z,2.80
2023-04-13T20:05:18.204Z,1.93
2023-04-13T20:07:45.160Z,3.27
2023-04-13T20:10:12.588Z,3.10
2023-04-13T20:12:39.609Z,2.40
2023-04-13T20:15:10.132Z,3.37
2023-04-13T20:17:37.182Z,3.30
2023-04-13T20:20:06.509Z,2.93
2023-04-13T20:22:33.482Z,1.87
2023-04-13T20:25:05.095Z,6.90
2023-04-13T20:27:37.711Z,3.33
2023-04-13T20:30:08.032Z,4.23
2023-04-13T20:32:35.281Z,1.50
2023-04-13T20:35:02.927Z,4.70
2023-04-13T20:37:29.896Z,4.17
2023-04-13T20:39:58.952Z,1.80
2023-04-13T20:42:26.026Z,2.87
2023-04-13T20:44:57.679Z,6.27
2023-04-13T20:47:29.171Z,2.73
2023-04-13T20:49:57.656Z,4.73
2023-04-13T20:52:26.031Z,3.93
2023-04-13T20:54:54.723Z,2.47
2023-04-13T20:57:22.070Z,3.43
2023-04-13T20:59:49.116Z,6.30
2023-04-13T21:02:17.457Z,6.90
2023-04-13T21:04:44.485Z,6.50
2023-04-13T21:07:12.981Z,5.40
2023-04-13T21:09:40.021Z,2.90
2023-04-13T21:12:07.184Z,6.27
2023-04-13T21:14:34.107Z,11.13
2023-04-13T21:17:01.071Z,2.47
2023-04-13T21:19:30.141Z,5.33
2023-04-13T21:21:57.626Z,6.97
2023-04-13T21:24:24.743Z,2.57
2023-04-13T21:26:51.756Z,5.57
2023-04-13T21:29:20.186Z,7.50
2023-04-13T21:31:48.165Z,6.43
2023-04-13T21:34:16.844Z,10.57
2023-04-13T21:39:14.607Z,9.50
2023-04-13T21:41:42.672Z,5.40
2023-04-13T21:44:22.651Z,5.10
2023-04-13T21:46:56.724Z,5.83
2023-04-13T21:49:23.701Z,3.50
2023-04-13T21:51:50.736Z,7.37
2023-04-13T21:54:17.743Z,2.87
2023-04-13T21:56:44.678Z,5.13
2023-04-13T21:59:17.558Z,5.63
2023-04-13T22:01:45.875Z,4.30
2023-04-13T22:04:13.213Z,5.93
2023-04-13T22:06:40.510Z,7.10
2023-04-13T22:09:07.523Z,3.90
2023-04-13T22:11:34.454Z,4.17
2023-04-13T22:14:01.789Z,5.27
2023-04-13T22:16:28.745Z,4.77
2023-04-13T22:18:58.011Z,3.43
2023-04-13T22:21:25.052Z,4.57
2023-04-13T22:23:53.079Z,2.83
2023-04-13T22:26:20.015Z,11.50
2023-04-13T22:28:47.059Z,7.40
2023-04-13T22:31:13.995Z,3.17
2023-04-13T22:33:41.097Z,2.50
2023-04-13T22:36:19.913Z,6.10
2023-04-13T22:38:47.673Z,3.70
2023-04-13T22:41:14.628Z,4.00
2023-04-13T22:43:41.681Z,6.13
2023-04-13T22:46:08.608Z,4.03
2023-04-13T22:48:35.744Z,4.53
2023-04-13T22:51:03.792Z,5.20
2023-04-13T22:53:31.197Z,4.87
2023-04-13T22:55:59.334Z,2.83
2023-04-13T22:58:26.662Z,4.03
2023-04-13T23:00:53.678Z,3.13
2023-04-13T23:03:23.031Z,3.40
2023-04-13T23:05:50.193Z,5.70
2023-04-13T23:08:17.199Z,11.20
2023-04-13T23:10:45.148Z,3.27
2023-04-13T23:13:12.661Z,5.47
2023-04-13T23:15:39.700Z,3.50
2023-04-13T23:18:06.892Z,2.63
2023-04-13T23:20:34.015Z,3.63
2023-04-13T23:23:01.306Z,2.50
2023-04-13T23:25:28.302Z,4.50
2023-04-13T23:27:55.349Z,3.70
2023-04-13T23:30:22.293Z,6.83
2023-04-13T23:32:49.315Z,2.80
2023-04-13T23:35:16.449Z,4.53
2023-04-13T23:37:45.398Z,3.43
2023-04-13T23:40:12.793Z,3.43
2023-04-13T23:42:39.809Z,6.07
2023-04-13T23:45:07.778Z,4.40
2023-04-13T23:47:34.838Z,3.57
2023-04-13T23:50:01.902Z,2.93
2023-04-13T23:52:29.104Z,8.07
2023-04-13T23:54:56.320Z,5.93
2023-04-13T23:57:24.294Z,3.90
2023-04-13T23:59:57.435Z,4.37
